Time,TemperatureF,DewpointF,PressureIn,WindDirection,WindDirectionDegrees,WindSpeedMPH,WindSpeedGustMPH,Humidity,HourlyPrecipIn,Conditions,Clouds,dailyrainin,SoftwareType,DateUTC
2013-01-27 00:02:00,28.0,-99.9,-100.00,SE,126,4.0,8.0,-999,0.00,,,0.00,,2013-01-27 06:02:00,
2013-01-27 00:11:00,28.0,-99.9,-100.00,SE,126,4.0,8.0,-999,0.00,,,0.00,,2013-01-27 06:11:00,
2013-01-27 00:22:00,28.0,-99.9,-100.00,SE,126,4.0,8.0,-999,0.00,,,0.00,,2013-01-27 06:22:00,
2013-01-27 00:32:00,28.0,-99.9,-100.00,SE,125,4.0,7.0,-999,0.00,,,0.00,,2013-01-27 06:32:00,
2013-01-27 00:42:00,28.0,-99.9,-100.00,SE,125,4.0,7.0,-999,0.00,,,0.00,,2013-01-27 06:42:00,
2013-01-27 00:52:00,28.0,-99.9,-100.00,SE,125,4.0,7.0,-999,0.00,,,0.00,,2013-01-27 06:52:00,
2013-01-27 01:00:00,28.0,-99.9,-100.00,SSE,156,3.0,6.0,-999,0.00,,,0.00,,2013-01-27 07:00:00,
2013-01-27 01:02:00,28.0,-99.9,-100.00,SSE,158,4.0,7.0,-999,0.00,,,0.00,,2013-01-27 07:02:00,
2013-01-27 01:14:00,28.0,-99.9,-100.00,SSE,158,4.0,7.0,-999,0.00,,,0.00,,2013-01-27 07:14:00,
2013-01-27 01:22:00,28.0,-99.9,-100.00,SSE,158,4.0,7.0,-999,0.00,,,0.00,,2013-01-27 07:22:00,
2013-01-27 01:32:00,28.0,-99.9,-100.00,SSE,156,3.0,6.0,-999,0.00,,,0.00,,2013-01-27 07:32:00,
2013-01-27 01:42:00,28.0,-99.9,-100.00,SSE,156,3.0,6.0,-999,0.00,,,0.00,,2013-01-27 07:42:00,
2013-01-27 01:52:00,28.0,-99.9,-100.00,SSE,156,3.0,6.0,-999,0.00,,,0.00,,2013-01-27 07:52:00,
2013-01-27 02:32:00,29.0,-99.9,-100.00,SE,125,4.0,7.0,-999,0.00,,,0.00,,2013-01-27 08:32:00,
2013-01-27 02:42:00,29.0,-99.9,-100.00,SE,125,4.0,7.0,-999,0.00,,,0.00,,2013-01-27 08:42:00,
2013-01-27 02:52:00,29.0,-99.9,-100.00,SE,125,4.0,7.0,-999,0.00,,,0.00,,2013-01-27 08:52:00,
2013-01-27 03:03:00,29.0,-99.9,-100.00,SE,136,4.0,8.0,-999,0.00,,,0.00,,2013-01-27 09:03:00,
2013-01-27 03:11:00,29.0,-99.9,-100.00,SE,136,4.0,8.0,-999,0.00,,,0.00,,2013-01-27 09:11:00,
2013-01-27 03:22:00,29.0,-99.9,-100.00,SE,136,4.0,8.0,-999,0.00,,,0.00,,2013-01-27 09:22:00,
2013-01-27 03:32:00,29.0,-99.9,-100.00,SE,126,3.0,6.0,-999,0.00,,,0.00,,2013-01-27 09:32:00,
2013-01-27 03:42:00,29.0,-99.9,-100.00,SE,126,3.0,6.0,-999,0.00,,,0.00,,2013-01-27 09:42:00,
2013-01-27 03:52:00,29.0,-99.9,-100.00,SE,126,3.0,6.0,-999,0.00,,,0.00,,2013-01-27 09:52:00,
2013-01-27 04:02:00,29.0,-99.9,-100.00,SE,129,4.0,8.0,-999,0.00,,,0.00,,2013-01-27 10:02:00,
2013-01-27 04:11:00,29.0,-99.9,-100.00,SE,129,4.0,8.0,-999,0.00,,,0.00,,2013-01-27 10:11:00,
2013-01-27 04:21:00,29.0,-99.9,-100.00,SE,129,4.0,8.0,-999,0.00,,,0.00,,2013-01-27 10:21:00,
2013-01-27 04:32:00,29.0,-99.9,-100.00,SE,137,4.0,9.0,-999,0.00,,,0.00,,2013-01-27 10:32:00,
2013-01-27 04:42:00,29.0,-99.9,-100.00,SE,137,4.0,9.0,-999,0.00,,,0.00,,2013-01-27 10:42:00,
2013-01-27 04:52:00,29.0,-99.9,-100.00,SE,137,4.0,9.0,-999,0.00,,,0.00,,2013-01-27 10:52:00,
2013-01-27 05:01:00,29.0,-99.9,-100.00,SE,132,4.0,8.0,-999,0.00,,,0.00,,2013-01-27 11:01:00,
2013-01-27 05:11:00,29.0,-99.9,-100.00,SE,132,4.0,8.0,-999,0.00,,,0.00,,2013-01-27 11:11:00,
2013-01-27 05:22:00,29.0,-99.9,-100.00,SE,132,4.0,8.0,-999,0.00,,,0.00,,2013-01-27 11:22:00,
2013-01-27 05:32:00,29.0,-99.9,-100.00,SE,126,5.0,9.0,-999,0.00,,,0.00,,2013-01-27 11:32:00,
2013-01-27 05:42:00,29.0,-99.9,-100.00,SE,126,5.0,9.0,-999,0.00,,,0.00,,2013-01-27 11:42:00,
2013-01-27 05:52:00,29.0,-99.9,-100.00,SE,126,5.0,9.0,-999,0.00,,,0.00,,2013-01-27 11:52:00,
2013-01-27 06:03:00,29.0,-99.9,-100.00,SE,131,6.0,11.0,-999,0.00,,,0.00,,2013-01-27 12:03:00,
2013-01-27 06:12:00,29.0,-99.9,-100.00,SE,131,6.0,11.0,-999,0.00,,,0.00,,2013-01-27 12:12:00,
2013-01-27 06:22:00,29.0,-99.9,-100.00,SE,131,6.0,11.0,-999,0.00,,,0.00,,2013-01-27 12:22:00,
2013-01-27 06:33:00,29.0,-99.9,-100.00,SE,128,4.0,7.0,-999,0.00,,,0.00,,2013-01-27 12:33:00,
2013-01-27 06:42:00,29.0,-99.9,-100.00,SE,128,4.0,7.0,-999,0.00,,,0.00,,2013-01-27 12:42:00,
2013-01-27 06:53:00,29.0,-99.9,-100.00,SE,128,4.0,7.0,-999,0.00,,,0.00,,2013-01-27 12:53:00,
2013-01-27 07:02:00,29.0,-99.9,-100.00,SE,127,4.0,7.0,-999,0.00,,,0.00,,2013-01-27 13:02:00,
2013-01-27 07:12:00,29.0,-99.9,-100.00,SE,127,4.0,7.0,-999,0.00,,,0.00,,2013-01-27 13:12:00,
2013-01-27 07:22:00,29.0,-99.9,-100.00,SE,127,4.0,7.0,-999,0.00,,,0.00,,2013-01-27 13:22:00,
2013-01-27 07:32:00,29.0,-99.9,-100.00,SE,125,5.0,7.0,-999,0.00,,,0.00,,2013-01-27 13:32:00,
2013-01-27 07:42:00,29.0,-99.9,-100.00,SE,125,5.0,7.0,-999,0.00,,,0.00,,2013-01-27 13:42:00,
2013-01-27 07:52:00,29.0,-99.9,-100.00,SE,125,5.0,7.0,-999,0.00,,,0.00,,2013-01-27 13:52:00,
2013-01-27 08:02:00,32.0,-99.9,-100.00,SSE,153,3.0,6.0,-999,0.00,,,0.00,,2013-01-27 14:02:00,
2013-01-27 08:12:00,32.0,-99.9,-100.00,SSE,153,3.0,6.0,-999,0.00,,,0.00,,2013-01-27 14:12:00,
2013-01-27 08:22:00,32.0,-99.9,-100.00,SSE,153,3.0,6.0,-999,0.00,,,0.00,,2013-01-27 14:22:00,
2013-01-27 08:33:00,32.0,-99.9,-100.00,SSE,148,3.0,6.0,-999,0.00,,,0.00,,2013-01-27 14:33:00,
2013-01-27 08:43:00,32.0,-99.9,-100.00,SSE,148,3.0,6.0,-999,0.00,,,0.00,,2013-01-27 14:43:00,
2013-01-27 08:53:00,32.0,-99.9,-100.00,SSE,148,3.0,6.0,-999,0.00,,,0.00,,2013-01-27 14:53:00,
2013-01-27 09:02:00,32.0,-99.9,-100.00,SE,135,4.0,7.0,-999,0.00,,,0.00,,2013-01-27 15:02:00,
2013-01-27 09:12:00,32.0,-99.9,-100.00,SE,135,4.0,7.0,-999,0.00,,,0.00,,2013-01-27 15:12:00,
2013-01-27 09:22:00,32.0,-99.9,-100.00,SE,135,4.0,7.0,-999,0.00,,,0.00,,2013-01-27 15:22:00,
2013-01-27 09:33:00,32.0,-99.9,-100.00,SE,138,4.0,9.0,-999,0.00,,,0.00,,2013-01-27 15:33:00,
2013-01-27 09:43:00,32.0,-99.9,-100.00,SE,138,4.0,9.0,-999,0.00,,,0.00,,2013-01-27 15:43:00,
2013-01-27 09:53:00,32.0,-99.9,-100.00,SE,138,4.0,9.0,-999,0.00,,,0.00,,2013-01-27 15:53:00,
2013-01-27 10:03:00,30.0,-99.9,-100.00,ESE,109,8.0,12.0,-999,0.00,,,0.00,,2013-01-27 16:03:00,
2013-01-27 10:12:00,30.0,-99.9,-100.00,ESE,109,8.0,12.0,-999,0.00,,,0.00,,2013-01-27 16:12:00,
2013-01-27 10:22:00,30.0,-99.9,-100.00,ESE,109,8.0,12.0,-999,0.00,,,0.00,,2013-01-27 16:22:00,
2013-01-27 10:33:00,31.0,-99.9,-100.00,ESE,110,8.0,11.0,-999,0.00,,,0.00,,2013-01-27 16:33:00,
2013-01-27 10:42:00,31.0,-99.9,-100.00,ESE,110,8.0,11.0,-999,0.00,,,0.00,,2013-01-27 16:42:00,
2013-01-27 10:53:00,31.0,-99.9,-100.00,ESE,110,8.0,11.0,-999,0.00,,,0.00,,2013-01-27 16:53:00,
2013-01-27 11:02:00,31.0,-99.9,-100.00,ESE,121,9.0,16.0,-999,0.00,,,0.00,,2013-01-27 17:02:00,
2013-01-27 11:13:00,31.0,-99.9,-100.00,ESE,121,9.0,16.0,-999,0.00,,,0.00,,2013-01-27 17:13:00,
2013-01-27 11:22:00,31.0,-99.9,-100.00,ESE,121,9.0,16.0,-999,0.00,,,0.00,,2013-01-27 17:22:00,
2013-01-27 11:33:00,32.0,-99.9,-100.00,ESE,110,6.0,9.0,-999,0.00,,,0.00,,2013-01-27 17:33:00,
2013-01-27 11:42:00,32.0,-99.9,-100.00,ESE,110,6.0,9.0,-999,0.00,,,0.00,,2013-01-27 17:42:00,
2013-01-27 11:53:00,32.0,-99.9,-100.00,ESE,110,6.0,9.0,-999,0.00,,,0.00,,2013-01-27 17:53:00,
2013-01-27 12:03:00,32.0,-99.9,-100.00,ESE,111,6.0,9.0,-999,0.00,,,0.00,,2013-01-27 18:03:00,
2013-01-27 12:12:00,32.0,-99.9,-100.00,ESE,111,6.0,9.0,-999,0.00,,,0.00,,2013-01-27 18:12:00,
2013-01-27 12:23:00,32.0,-99.9,-100.00,ESE,111,6.0,9.0,-999,0.00,,,0.00,,2013-01-27 18:23:00,
2013-01-27 12:33:00,32.0,-99.9,-100.00,SE,125,7.0,10.0,-999,0.05,,,0.05,,2013-01-27 18:33:00,
2013-01-27 12:42:00,32.0,-99.9,-100.00,SE,125,7.0,10.0,-999,0.05,,,0.05,,2013-01-27 18:42:00,
2013-01-27 12:53:00,32.0,-99.9,-100.00,SE,125,7.0,10.0,-999,0.05,,,0.05,,2013-01-27 18:53:00,
2013-01-27 13:02:00,32.0,-99.9,-100.00,ESE,119,6.0,11.0,-999,0.15,,,0.15,,2013-01-27 19:02:00,
2013-01-27 13:12:00,32.0,-99.9,-100.00,ESE,119,6.0,11.0,-999,0.15,,,0.15,,2013-01-27 19:12:00,
2013-01-27 13:22:00,32.0,-99.9,-100.00,ESE,119,6.0,11.0,-999,0.15,,,0.15,,2013-01-27 19:22:00,
2013-01-27 13:33:00,32.0,-99.9,-100.00,ESE,104,6.0,10.0,-999,0.15,,,0.20,,2013-01-27 19:33:00,
2013-01-27 13:42:00,32.0,-99.9,-100.00,ESE,104,6.0,10.0,-999,0.15,,,0.20,,2013-01-27 19:42:00,
2013-01-27 13:52:00,32.0,-99.9,-100.00,ESE,104,6.0,10.0,-999,0.15,,,0.20,,2013-01-27 19:52:00,
2013-01-27 14:03:00,32.0,-99.9,-100.00,ESE,112,7.0,10.0,-999,0.12,,,0.27,,2013-01-27 20:03:00,
2013-01-27 14:12:00,32.0,-99.9,-100.00,ESE,112,7.0,10.0,-999,0.12,,,0.27,,2013-01-27 20:12:00,
2013-01-27 14:22:00,32.0,-99.9,-100.00,ESE,112,7.0,10.0,-999,0.12,,,0.27,,2013-01-27 20:22:00,
2013-01-27 14:33:00,33.0,-99.9,-100.00,SE,129,4.0,10.0,-999,0.13,,,0.33,,2013-01-27 20:33:00,
2013-01-27 14:43:00,33.0,-99.9,-100.00,SE,129,4.0,10.0,-999,0.13,,,0.33,,2013-01-27 20:43:00,
2013-01-27 14:52:00,33.0,-99.9,-100.00,SE,129,4.0,10.0,-999,0.13,,,0.33,,2013-01-27 20:52:00,
2013-01-27 15:02:00,33.0,-99.9,-100.00,ESE,118,4.0,9.0,-999,0.09,,,0.36,,2013-01-27 21:02:00,
2013-01-27 15:12:00,33.0,-99.9,-100.00,ESE,118,4.0,9.0,-999,0.09,,,0.36,,2013-01-27 21:12:00,
2013-01-27 15:23:00,33.0,-99.9,-100.00,ESE,118,4.0,9.0,-999,0.09,,,0.36,,2013-01-27 21:23:00,
2013-01-27 15:30:00,35.0,-99.9,-100.00,SE,130,3.0,6.0,-999,0.08,,,0.44,,2013-01-27 21:30:00,
2013-01-27 15:33:00,34.0,-99.9,-100.00,ESE,121,4.0,6.0,-999,0.09,,,0.42,,2013-01-27 21:33:00,
2013-01-27 15:43:00,34.0,-99.9,-100.00,ESE,121,4.0,6.0,-999,0.09,,,0.42,,2013-01-27 21:43:00,
2013-01-27 15:52:00,34.0,-99.9,-100.00,ESE,121,4.0,6.0,-999,0.09,,,0.42,,2013-01-27 21:52:00,
2013-01-27 16:03:00,35.0,-99.9,-100.00,SE,130,3.0,6.0,-999,0.08,,,0.44,,2013-01-27 22:03:00,
2013-01-27 16:12:00,35.0,-99.9,-100.00,SE,130,3.0,6.0,-999,0.08,,,0.44,,2013-01-27 22:12:00,
2013-01-27 16:22:00,35.0,-99.9,-100.00,SE,130,3.0,6.0,-999,0.08,,,0.44,,2013-01-27 22:22:00,
2013-01-27 19:33:00,35.0,-99.9,-100.00,SE,132,4.0,6.0,-999,0.00,,,0.47,,2013-01-28 01:33:00,
2013-01-27 19:43:00,35.0,-99.9,-100.00,SE,132,4.0,6.0,-999,0.00,,,0.47,,2013-01-28 01:43:00,
2013-01-27 19:52:00,35.0,-99.9,-100.00,SE,132,4.0,6.0,-999,0.00,,,0.47,,2013-01-28 01:52:00,
2013-01-27 20:02:00,36.0,-99.9,-100.00,SE,139,1.0,4.0,-999,0.00,,,0.47,,2013-01-28 02:02:00,
2013-01-27 20:12:00,36.0,-99.9,-100.00,SE,139,1.0,4.0,-999,0.00,,,0.47,,2013-01-28 02:12:00,
2013-01-27 20:22:00,36.0,-99.9,-100.00,SE,139,1.0,4.0,-999,0.00,,,0.47,,2013-01-28 02:22:00,
2013-01-27 20:32:00,36.0,-99.9,-100.00,SE,141,1.0,3.0,-999,0.00,,,0.47,,2013-01-28 02:32:00,
2013-01-27 20:42:00,36.0,-99.9,-100.00,SE,141,1.0,3.0,-999,0.00,,,0.47,,2013-01-28 02:42:00,
2013-01-27 20:53:00,36.0,-99.9,-100.00,SE,141,1.0,3.0,-999,0.00,,,0.47,,2013-01-28 02:53:00,
2013-01-27 21:02:00,37.0,-99.9,-100.00,SSE,149,3.0,5.0,-999,0.00,,,0.47,,2013-01-28 03:02:00,
2013-01-27 21:12:00,37.0,-99.9,-100.00,SSE,149,3.0,5.0,-999,0.00,,,0.47,,2013-01-28 03:12:00,
2013-01-27 21:22:00,37.0,-99.9,-100.00,SSE,149,3.0,5.0,-999,0.00,,,0.47,,2013-01-28 03:22:00,
2013-01-27 21:30:00,38.0,-99.9,-100.00,SSE,159,4.0,5.0,-999,0.01,,,0.48,,2013-01-28 03:30:00,
2013-01-27 21:32:00,38.0,-99.9,-100.00,SSE,157,4.0,7.0,-999,0.01,,,0.48,,2013-01-28 03:32:00,
2013-01-27 21:42:00,38.0,-99.9,-100.00,SSE,157,4.0,7.0,-999,0.01,,,0.48,,2013-01-28 03:42:00,
2013-01-27 21:53:00,38.0,-99.9,-100.00,SSE,157,4.0,7.0,-999,0.01,,,0.48,,2013-01-28 03:53:00,
2013-01-27 22:00:00,39.0,-99.9,-100.00,SSE,156,3.0,4.0,-999,0.00,,,0.48,,2013-01-28 04:00:00,
2013-01-27 22:02:00,38.0,-99.9,-100.00,SSE,159,4.0,5.0,-999,0.01,,,0.48,,2013-01-28 04:02:00,
2013-01-27 22:12:00,38.0,-99.9,-100.00,SSE,159,4.0,5.0,-999,0.01,,,0.48,,2013-01-28 04:12:00,
2013-01-27 22:22:00,38.0,-99.9,-100.00,SSE,159,4.0,5.0,-999,0.01,,,0.48,,2013-01-28 04:22:00,
2013-01-27 22:42:00,39.0,-99.9,-100.00,SSE,156,3.0,4.0,-999,0.00,,,0.48,,2013-01-28 04:42:00,
2013-01-27 22:52:00,39.0,-99.9,-100.00,SSE,156,3.0,4.0,-999,0.00,,,0.48,,2013-01-28 04:52:00,
2013-01-27 23:12:00,40.0,-99.9,-100.00,South,172,4.0,7.0,-999,0.00,,,0.48,,2013-01-28 05:12:00,
2013-01-27 23:22:00,40.0,-99.9,-100.00,South,172,4.0,7.0,-999,0.00,,,0.48,,2013-01-28 05:22:00,
2013-01-27 23:32:00,41.0,-99.9,-100.00,South,185,5.0,8.0,-999,0.00,,,0.48,,2013-01-28 05:32:00,
2013-01-27 23:42:00,41.0,-99.9,-100.00,South,185,5.0,8.0,-999,0.00,,,0.48,,2013-01-28 05:42:00,
2013-01-27 23:53:00,41.0,-99.9,-100.00,South,185,5.0,8.0,-999,0.00,,,0.48,,2013-01-28 05:53:00,